sensor_id;sensor_type;location;lat;lon;timestamp;temperature;humidity
33105;DHT22;19476;51.448;6.674;2023-05-07T00:07:36;21.90;53.80
33105;DHT22;19476;51.448;6.674;2023-05-07T00:10:05;21.90;53.40
33105;DHT22;19476;51.448;6.674;2023-05-07T00:18:44;21.90;53.60
33105;DHT22;19476;51.448;6.674;2023-05-07T00:21:10;21.90;53.20
33105;DHT22;19476;51.448;6.674;2023-05-07T00:23:36;21.90;53.40
33105;DHT22;19476;51.448;6.674;2023-05-07T00:26:03;21.90;53.30
33105;DHT22;19476;51.448;6.674;2023-05-07T00:28:29;21.80;53.40
33105;DHT22;19476;51.448;6.674;2023-05-07T00:30:55;21.80;53.30
33105;DHT22;19476;51.448;6.674;2023-05-07T00:33:20;21.80;53.40
33105;DHT22;19476;51.448;6.674;2023-05-07T00:35:48;21.80;53.40
33105;DHT22;19476;51.448;6.674;2023-05-07T00:38:14;21.80;53.40
33105;DHT22;19476;51.448;6.674;2023-05-07T00:40:39;21.80;53.40
33105;DHT22;19476;51.448;6.674;2023-05-07T00:43:05;21.80;53.40
33105;DHT22;19476;51.448;6.674;2023-05-07T00:45:33;21.80;53.50
33105;DHT22;19476;51.448;6.674;2023-05-07T00:48:02;21.80;53.50
33105;DHT22;19476;51.448;6.674;2023-05-07T00:50:29;21.80;53.60
33105;DHT22;19476;51.448;6.674;2023-05-07T00:52:55;21.80;53.40
33105;DHT22;19476;51.448;6.674;2023-05-07T00:55:23;21.80;53.40
33105;DHT22;19476;51.448;6.674;2023-05-07T00:57:50;21.80;53.40
33105;DHT22;19476;51.448;6.674;2023-05-07T01:00:16;21.80;53.40
33105;DHT22;19476;51.448;6.674;2023-05-07T01:02:44;21.80;53.50
33105;DHT22;19476;51.448;6.674;2023-05-07T01:05:12;21.70;53.40
33105;DHT22;19476;51.448;6.674;2023-05-07T01:07:40;21.80;53.60
33105;DHT22;19476;51.448;6.674;2023-05-07T01:10:08;21.80;53.60
33105;DHT22;19476;51.448;6.674;2023-05-07T01:12:35;21.70;53.50
33105;DHT22;19476;51.448;6.674;2023-05-07T01:15:03;21.70;53.50
33105;DHT22;19476;51.448;6.674;2023-05-07T01:17:36;21.70;53.50
33105;DHT22;19476;51.448;6.674;2023-05-07T01:20:03;21.80;53.70
33105;DHT22;19476;51.448;6.674;2023-05-07T01:22:33;21.70;53.40
33105;DHT22;19476;51.448;6.674;2023-05-07T01:25:00;21.70;53.60
33105;DHT22;19476;51.448;6.674;2023-05-07T01:27:27;21.70;53.50
33105;DHT22;19476;51.448;6.674;2023-05-07T01:29:53;21.70;53.50
33105;DHT22;19476;51.448;6.674;2023-05-07T01:32:24;21.60;53.50
33105;DHT22;19476;51.448;6.674;2023-05-07T01:34:52;21.60;53.80
33105;DHT22;19476;51.448;6.674;2023-05-07T01:37:18;21.50;53.70
33105;DHT22;19476;51.448;6.674;2023-05-07T01:39:44;21.60;53.70
33105;DHT22;19476;51.448;6.674;2023-05-07T01:42:10;21.50;53.70
33105;DHT22;19476;51.448;6.674;2023-05-07T01:44:36;21.60;53.80
33105;DHT22;19476;51.448;6.674;2023-05-07T01:47:02;21.50;53.80
33105;DHT22;19476;51.448;6.674;2023-05-07T01:49:28;21.50;53.80
33105;DHT22;19476;51.448;6.674;2023-05-07T01:51:54;21.50;53.80
33105;DHT22;19476;51.448;6.674;2023-05-07T01:54:26;21.40;53.80
33105;DHT22;19476;51.448;6.674;2023-05-07T01:56:53;21.40;54.20
33105;DHT22;19476;51.448;6.674;2023-05-07T01:59:19;21.40;54.00
33105;DHT22;19476;51.448;6.674;2023-05-07T02:01:45;21.40;54.00
33105;DHT22;19476;51.448;6.674;2023-05-07T02:04:10;21.40;54.10
33105;DHT22;19476;51.448;6.674;2023-05-07T02:06:36;21.40;54.10
33105;DHT22;19476;51.448;6.674;2023-05-07T02:09:02;21.30;54.10
33105;DHT22;19476;51.448;6.674;2023-05-07T02:11:28;21.30;54.20
33105;DHT22;19476;51.448;6.674;2023-05-07T02:13:53;21.30;54.30
33105;DHT22;19476;51.448;6.674;2023-05-07T02:16:19;21.30;54.30
33105;DHT22;19476;51.448;6.674;2023-05-07T02:18:45;21.20;54.40
33105;DHT22;19476;51.448;6.674;2023-05-07T02:21:11;21.20;54.50
33105;DHT22;19476;51.448;6.674;2023-05-07T02:23:36;21.20;54.50
33105;DHT22;19476;51.448;6.674;2023-05-07T02:26:03;21.20;54.50
33105;DHT22;19476;51.448;6.674;2023-05-07T02:28:29;21.20;55.20
33105;DHT22;19476;51.448;6.674;2023-05-07T02:30:55;21.10;54.60
33105;DHT22;19476;51.448;6.674;2023-05-07T02:33:20;21.10;54.60
33105;DHT22;19476;51.448;6.674;2023-05-07T02:35:46;21.10;54.60
33105;DHT22;19476;51.448;6.674;2023-05-07T02:38:12;21.10;54.80
33105;DHT22;19476;51.448;6.674;2023-05-07T02:40:38;21.10;54.80
33105;DHT22;19476;51.448;6.674;2023-05-07T02:43:08;21.10;54.80
33105;DHT22;19476;51.448;6.674;2023-05-07T02:45:34;21.10;54.90
33105;DHT22;19476;51.448;6.674;2023-05-07T02:48:01;21.10;54.80
33105;DHT22;19476;51.448;6.674;2023-05-07T02:50:27;21.10;54.90
33105;DHT22;19476;51.448;6.674;2023-05-07T02:52:53;21.10;55.00
33105;DHT22;19476;51.448;6.674;2023-05-07T02:55:19;21.10;55.00
33105;DHT22;19476;51.448;6.674;2023-05-07T02:57:44;21.10;55.10
33105;DHT22;19476;51.448;6.674;2023-05-07T03:00:12;21.10;55.10
33105;DHT22;19476;51.448;6.674;2023-05-07T03:02:39;21.10;55.30
33105;DHT22;19476;51.448;6.674;2023-05-07T03:05:06;21.10;55.20
33105;DHT22;19476;51.448;6.674;2023-05-07T03:07:31;21.10;55.10
33105;DHT22;19476;51.448;6.674;2023-05-07T03:09:57;21.10;55.10
33105;DHT22;19476;51.448;6.674;2023-05-07T03:12:23;20.90;54.90
33105;DHT22;19476;51.448;6.674;2023-05-07T03:14:49;21.00;55.00
33105;DHT22;19476;51.448;6.674;2023-05-07T03:17:15;21.00;55.10
33105;DHT22;19476;51.448;6.674;2023-05-07T03:19:41;21.00;55.10
33105;DHT22;19476;51.448;6.674;2023-05-07T03:22:07;21.00;55.20
33105;DHT22;19476;51.448;6.674;2023-05-07T03:24:33;21.00;55.30
33105;DHT22;19476;51.448;6.674;2023-05-07T03:26:58;21.00;55.40
33105;DHT22;19476;51.448;6.674;2023-05-07T03:29:26;20.90;55.40
33105;DHT22;19476;51.448;6.674;2023-05-07T03:31:52;20.90;55.40
33105;DHT22;19476;51.448;6.674;2023-05-07T03:34:18;20.90;55.50
33105;DHT22;19476;51.448;6.674;2023-05-07T03:36:48;20.90;55.60
33105;DHT22;19476;51.448;6.674;2023-05-07T03:39:14;20.90;55.70
33105;DHT22;19476;51.448;6.674;2023-05-07T03:41:40;20.90;55.60
33105;DHT22;19476;51.448;6.674;2023-05-07T03:44:06;20.90;55.60
33105;DHT22;19476;51.448;6.674;2023-05-07T03:46:32;20.90;55.60
33105;DHT22;19476;51.448;6.674;2023-05-07T03:48:58;20.90;55.70
33105;DHT22;19476;51.448;6.674;2023-05-07T03:51:24;20.90;55.60
33105;DHT22;19476;51.448;6.674;2023-05-07T03:53:51;20.90;55.70
33105;DHT22;19476;51.448;6.674;2023-05-07T03:56:19;20.80;55.70
33105;DHT22;19476;51.448;6.674;2023-05-07T03:58:45;20.80;55.80
33105;DHT22;19476;51.448;6.674;2023-05-07T04:01:11;20.80;55.80
33105;DHT22;19476;51.448;6.674;2023-05-07T04:03:37;20.80;55.80
33105;DHT22;19476;51.448;6.674;2023-05-07T04:06:03;20.80;55.80
33105;DHT22;19476;51.448;6.674;2023-05-07T04:08:29;20.80;55.80
33105;DHT22;19476;51.448;6.674;2023-05-07T04:10:58;20.80;55.90
33105;DHT22;19476;51.448;6.674;2023-05-07T04:13:24;20.80;56.10
33105;DHT22;19476;51.448;6.674;2023-05-07T04:15:51;20.70;55.90
33105;DHT22;19476;51.448;6.674;2023-05-07T04:18:16;20.70;56.00
33105;DHT22;19476;51.448;6.674;2023-05-07T04:20:42;20.70;55.90
33105;DHT22;19476;51.448;6.674;2023-05-07T04:23:08;20.70;56.00
33105;DHT22;19476;51.448;6.674;2023-05-07T04:25:34;20.70;56.00
33105;DHT22;19476;51.448;6.674;2023-05-07T04:28:00;20.90;56.20
33105;DHT22;19476;51.448;6.674;2023-05-07T04:30:26;20.60;56.00
33105;DHT22;19476;51.448;6.674;2023-05-07T04:32:52;20.70;56.20
33105;DHT22;19476;51.448;6.674;2023-05-07T04:35:19;20.70;56.20
33105;DHT22;19476;51.448;6.674;2023-05-07T04:37:44;20.70;56.20
33105;DHT22;19476;51.448;6.674;2023-05-07T04:40:10;20.70;56.20
33105;DHT22;19476;51.448;6.674;2023-05-07T04:42:36;20.70;56.20
33105;DHT22;19476;51.448;6.674;2023-05-07T04:45:02;20.80;56.20
33105;DHT22;19476;51.448;6.674;2023-05-07T04:47:28;20.70;56.20
33105;DHT22;19476;51.448;6.674;2023-05-07T04:49:54;20.80;56.20
33105;DHT22;19476;51.448;6.674;2023-05-07T04:52:19;20.80;56.10
33105;DHT22;19476;51.448;6.674;2023-05-07T04:54:45;20.80;56.10
33105;DHT22;19476;51.448;6.674;2023-05-07T04:57:11;20.90;56.10
33105;DHT22;19476;51.448;6.674;2023-05-07T04:59:37;21.10;56.10
33105;DHT22;19476;51.448;6.674;2023-05-07T05:02:03;20.90;56.10
33105;DHT22;19476;51.448;6.674;2023-05-07T05:04:30;20.90;56.10
33105;DHT22;19476;51.448;6.674;2023-05-07T05:06:55;20.90;56.10
33105;DHT22;19476;51.448;6.674;2023-05-07T05:09:21;20.90;56.00
33105;DHT22;19476;51.448;6.674;2023-05-07T05:11:47;20.90;56.00
33105;DHT22;19476;51.448;6.674;2023-05-07T05:14:13;20.90;56.00
33105;DHT22;19476;51.448;6.674;2023-05-07T05:16:39;20.90;56.00
33105;DHT22;19476;51.448;6.674;2023-05-07T05:19:05;20.90;56.00
33105;DHT22;19476;51.448;6.674;2023-05-07T05:21:31;20.90;56.10
33105;DHT22;19476;51.448;6.674;2023-05-07T05:23:58;20.90;56.20
33105;DHT22;19476;51.448;6.674;2023-05-07T05:26:24;20.90;56.20
33105;DHT22;19476;51.448;6.674;2023-05-07T05:28:49;20.90;56.20
33105;DHT22;19476;51.448;6.674;2023-05-07T05:31:16;20.90;56.30
33105;DHT22;19476;51.448;6.674;2023-05-07T05:33:42;20.90;56.50
33105;DHT22;19476;51.448;6.674;2023-05-07T05:36:11;20.90;56.50
33105;DHT22;19476;51.448;6.674;2023-05-07T05:38:38;20.80;56.70
33105;DHT22;19476;51.448;6.674;2023-05-07T05:41:04;20.90;56.70
33105;DHT22;19476;51.448;6.674;2023-05-07T05:43:31;20.90;56.60
33105;DHT22;19476;51.448;6.674;2023-05-07T05:45:57;20.90;57.20
33105;DHT22;19476;51.448;6.674;2023-05-07T05:48:23;20.90;56.80
33105;DHT22;19476;51.448;6.674;2023-05-07T05:50:49;20.90;56.80
33105;DHT22;19476;51.448;6.674;2023-05-07T05:53:15;20.90;56.70
33105;DHT22;19476;51.448;6.674;2023-05-07T05:55:41;20.90;56.80
33105;DHT22;19476;51.448;6.674;2023-05-07T05:58:08;21.00;57.00
33105;DHT22;19476;51.448;6.674;2023-05-07T06:00:34;21.00;56.90
33105;DHT22;19476;51.448;6.674;2023-05-07T06:03:00;21.00;56.90
33105;DHT22;19476;51.448;6.674;2023-05-07T06:05:26;21.10;56.90
33105;DHT22;19476;51.448;6.674;2023-05-07T06:07:51;21.10;56.90
33105;DHT22;19476;51.448;6.674;2023-05-07T06:10:17;21.10;56.80
33105;DHT22;19476;51.448;6.674;2023-05-07T06:12:43;21.20;56.80
33105;DHT22;19476;51.448;6.674;2023-05-07T06:15:10;21.20;56.80
33105;DHT22;19476;51.448;6.674;2023-05-07T06:17:36;21.20;56.50
33105;DHT22;19476;51.448;6.674;2023-05-07T06:20:02;21.30;56.40
33105;DHT22;19476;51.448;6.674;2023-05-07T06:22:27;21.30;56.10
33105;DHT22;19476;51.448;6.674;2023-05-07T06:24:53;21.40;56.10
33105;DHT22;19476;51.448;6.674;2023-05-07T06:27:18;21.40;55.80
33105;DHT22;19476;51.448;6.674;2023-05-07T06:29:44;21.40;55.50
33105;DHT22;19476;51.448;6.674;2023-05-07T06:32:11;21.40;55.20
33105;DHT22;19476;51.448;6.674;2023-05-07T06:34:38;21.40;55.20
33105;DHT22;19476;51.448;6.674;2023-05-07T06:37:04;21.40;55.20
33105;DHT22;19476;51.448;6.674;2023-05-07T06:39:31;21.40;55.10
33105;DHT22;19476;51.448;6.674;2023-05-07T06:41:57;21.40;55.00
33105;DHT22;19476;51.448;6.674;2023-05-07T06:44:22;21.50;55.10
33105;DHT22;19476;51.448;6.674;2023-05-07T06:46:48;21.50;55.00
33105;DHT22;19476;51.448;6.674;2023-05-07T06:49:14;21.50;54.80
33105;DHT22;19476;51.448;6.674;2023-05-07T06:51:40;21.50;54.60
33105;DHT22;19476;51.448;6.674;2023-05-07T06:54:06;21.50;54.50
33105;DHT22;19476;51.448;6.674;2023-05-07T06:56:33;21.60;54.50
33105;DHT22;19476;51.448;6.674;2023-05-07T06:59:00;21.60;54.40
33105;DHT22;19476;51.448;6.674;2023-05-07T07:01:26;21.60;54.30
33105;DHT22;19476;51.448;6.674;2023-05-07T07:03:52;21.70;54.30
33105;DHT22;19476;51.448;6.674;2023-05-07T07:06:17;21.70;54.10
33105;DHT22;19476;51.448;6.674;2023-05-07T07:08:43;21.70;54.10
33105;DHT22;19476;51.448;6.674;2023-05-07T07:11:10;21.80;54.00
33105;DHT22;19476;51.448;6.674;2023-05-07T07:13:36;21.80;54.00
33105;DHT22;19476;51.448;6.674;2023-05-07T07:16:01;21.80;54.00
33105;DHT22;19476;51.448;6.674;2023-05-07T07:18:28;21.90;54.00
33105;DHT22;19476;51.448;6.674;2023-05-07T07:20:54;21.90;53.80
33105;DHT22;19476;51.448;6.674;2023-05-07T07:23:20;21.90;53.60
33105;DHT22;19476;51.448;6.674;2023-05-07T07:25:46;22.00;53.50
33105;DHT22;19476;51.448;6.674;2023-05-07T07:28:12;22.00;53.40
33105;DHT22;19476;51.448;6.674;2023-05-07T07:30:38;22.00;53.40
33105;DHT22;19476;51.448;6.674;2023-05-07T07:33:04;22.00;53.30
33105;DHT22;19476;51.448;6.674;2023-05-07T07:35:31;22.00;53.10
33105;DHT22;19476;51.448;6.674;2023-05-07T07:37:57;22.10;53.00
33105;DHT22;19476;51.448;6.674;2023-05-07T07:40:23;22.10;52.80
33105;DHT22;19476;51.448;6.674;2023-05-07T07:42:49;22.20;52.70
33105;DHT22;19476;51.448;6.674;2023-05-07T07:45:15;22.20;52.60
33105;DHT22;19476;51.448;6.674;2023-05-07T07:47:41;22.30;52.40
33105;DHT22;19476;51.448;6.674;2023-05-07T07:50:07;22.30;52.30
33105;DHT22;19476;51.448;6.674;2023-05-07T07:52:33;22.40;52.20
33105;DHT22;19476;51.448;6.674;2023-05-07T07:54:59;22.40;51.90
33105;DHT22;19476;51.448;6.674;2023-05-07T07:57:25;22.50;51.90
33105;DHT22;19476;51.448;6.674;2023-05-07T07:59:51;22.60;51.90
33105;DHT22;19476;51.448;6.674;2023-05-07T08:02:17;22.70;51.60
33105;DHT22;19476;51.448;6.674;2023-05-07T08:04:43;22.80;51.20
33105;DHT22;19476;51.448;6.674;2023-05-07T08:07:10;22.80;51.10
33105;DHT22;19476;51.448;6.674;2023-05-07T08:09:39;22.90;50.80
33105;DHT22;19476;51.448;6.674;2023-05-07T08:12:06;23.00;50.60
33105;DHT22;19476;51.448;6.674;2023-05-07T08:14:33;23.10;50.40
33105;DHT22;19476;51.448;6.674;2023-05-07T08:16:58;23.20;50.20
33105;DHT22;19476;51.448;6.674;2023-05-07T08:19:24;23.20;50.00
33105;DHT22;19476;51.448;6.674;2023-05-07T08:21:50;23.20;50.00
33105;DHT22;19476;51.448;6.674;2023-05-07T08:24:16;23.20;49.80
33105;DHT22;19476;51.448;6.674;2023-05-07T08:26:43;23.30;49.80
33105;DHT22;19476;51.448;6.674;2023-05-07T08:29:09;23.30;49.90
33105;DHT22;19476;51.448;6.674;2023-05-07T08:31:35;23.30;49.80
33105;DHT22;19476;51.448;6.674;2023-05-07T08:34:01;23.30;49.80
33105;DHT22;19476;51.448;6.674;2023-05-07T08:36:26;23.30;49.60
33105;DHT22;19476;51.448;6.674;2023-05-07T08:38:54;23.30;49.50
33105;DHT22;19476;51.448;6.674;2023-05-07T08:41:20;23.40;50.10
33105;DHT22;19476;51.448;6.674;2023-05-07T08:43:48;23.40;49.60
33105;DHT22;19476;51.448;6.674;2023-05-07T08:46:18;23.40;49.60
33105;DHT22;19476;51.448;6.674;2023-05-07T08:48:49;23.50;49.40
33105;DHT22;19476;51.448;6.674;2023-05-07T08:51:18;23.60;49.60
33105;DHT22;19476;51.448;6.674;2023-05-07T08:53:44;23.60;49.40
33105;DHT22;19476;51.448;6.674;2023-05-07T08:56:11;23.70;49.50
33105;DHT22;19476;51.448;6.674;2023-05-07T08:58:37;23.80;49.90
33105;DHT22;19476;51.448;6.674;2023-05-07T09:01:23;23.90;49.20
33105;DHT22;19476;51.448;6.674;2023-05-07T09:03:50;23.90;48.80
33105;DHT22;19476;51.448;6.674;2023-05-07T09:06:16;24.00;49.30
33105;DHT22;19476;51.448;6.674;2023-05-07T09:08:52;24.10;49.30
33105;DHT22;19476;51.448;6.674;2023-05-07T09:11:22;24.20;49.00
33105;DHT22;19476;51.448;6.674;2023-05-07T09:13:49;24.30;48.70
33105;DHT22;19476;51.448;6.674;2023-05-07T09:16:15;24.40;49.00
33105;DHT22;19476;51.448;6.674;2023-05-07T09:18:42;24.50;48.50
33105;DHT22;19476;51.448;6.674;2023-05-07T09:21:15;24.60;48.80
33105;DHT22;19476;51.448;6.674;2023-05-07T09:23:41;24.70;47.20
33105;DHT22;19476;51.448;6.674;2023-05-07T09:26:08;24.80;47.40
33105;DHT22;19476;51.448;6.674;2023-05-07T09:28:41;24.90;47.40
33105;DHT22;19476;51.448;6.674;2023-05-07T09:31:07;25.00;46.50
33105;DHT22;19476;51.448;6.674;2023-05-07T09:33:33;25.10;47.00
33105;DHT22;19476;51.448;6.674;2023-05-07T09:36:01;25.10;46.30
33105;DHT22;19476;51.448;6.674;2023-05-07T09:38:27;25.20;46.20
33105;DHT22;19476;51.448;6.674;2023-05-07T09:41:10;25.20;45.60
33105;DHT22;19476;51.448;6.674;2023-05-07T09:43:37;25.30;44.40
33105;DHT22;19476;51.448;6.674;2023-05-07T09:46:12;25.30;45.00
33105;DHT22;19476;51.448;6.674;2023-05-07T09:48:40;25.40;44.50
33105;DHT22;19476;51.448;6.674;2023-05-07T09:51:30;25.40;44.30
33105;DHT22;19476;51.448;6.674;2023-05-07T09:54:00;25.50;44.20
33105;DHT22;19476;51.448;6.674;2023-05-07T09:56:29;25.50;44.40
33105;DHT22;19476;51.448;6.674;2023-05-07T09:58:59;25.60;44.60
33105;DHT22;19476;51.448;6.674;2023-05-07T10:01:25;25.70;44.00
33105;DHT22;19476;51.448;6.674;2023-05-07T10:03:53;25.70;44.30
33105;DHT22;19476;51.448;6.674;2023-05-07T10:06:23;25.80;44.30
33105;DHT22;19476;51.448;6.674;2023-05-07T10:08:51;25.90;43.50
33105;DHT22;19476;51.448;6.674;2023-05-07T10:11:17;26.00;44.00
33105;DHT22;19476;51.448;6.674;2023-05-07T10:13:44;26.10;44.00
33105;DHT22;19476;51.448;6.674;2023-05-07T10:16:11;26.20;43.60
33105;DHT22;19476;51.448;6.674;2023-05-07T10:18:38;26.20;43.60
33105;DHT22;19476;51.448;6.674;2023-05-07T10:21:16;26.30;43.50
33105;DHT22;19476;51.448;6.674;2023-05-07T10:23:45;26.40;42.60
33105;DHT22;19476;51.448;6.674;2023-05-07T10:26:13;26.50;42.90
33105;DHT22;19476;51.448;6.674;2023-05-07T10:28:43;26.50;42.70
33105;DHT22;19476;51.448;6.674;2023-05-07T10:31:24;26.60;42.50
33105;DHT22;19476;51.448;6.674;2023-05-07T10:33:55;26.70;42.20
33105;DHT22;19476;51.448;6.674;2023-05-07T10:36:22;26.70;42.20
33105;DHT22;19476;51.448;6.674;2023-05-07T10:38:49;26.70;42.40
33105;DHT22;19476;51.448;6.674;2023-05-07T10:41:16;26.70;42.40
33105;DHT22;19476;51.448;6.674;2023-05-07T10:43:45;26.80;42.30
33105;DHT22;19476;51.448;6.674;2023-05-07T10:46:21;26.90;42.50
33105;DHT22;19476;51.448;6.674;2023-05-07T10:51:30;27.00;42.20
33105;DHT22;19476;51.448;6.674;2023-05-07T10:56:42;27.10;41.80
33105;DHT22;19476;51.448;6.674;2023-05-07T11:01:57;27.20;41.80
33105;DHT22;19476;51.448;6.674;2023-05-07T11:04:28;27.30;41.60
33105;DHT22;19476;51.448;6.674;2023-05-07T11:15:38;27.40;41.60
33105;DHT22;19476;51.448;6.674;2023-05-07T11:18:05;27.50;41.60
33105;DHT22;19476;51.448;6.674;2023-05-07T11:20:51;27.50;41.60
33105;DHT22;19476;51.448;6.674;2023-05-07T11:26:04;27.50;41.10
33105;DHT22;19476;51.448;6.674;2023-05-07T11:28:31;27.60;41.30
33105;DHT22;19476;51.448;6.674;2023-05-07T11:30:57;27.60;41.30
33105;DHT22;19476;51.448;6.674;2023-05-07T11:33:23;27.60;41.40
33105;DHT22;19476;51.448;6.674;2023-05-07T11:35:53;27.70;41.10
33105;DHT22;19476;51.448;6.674;2023-05-07T11:38:19;27.70;40.70
33105;DHT22;19476;51.448;6.674;2023-05-07T11:40:52;27.70;41.00
33105;DHT22;19476;51.448;6.674;2023-05-07T11:43:18;27.80;40.80
33105;DHT22;19476;51.448;6.674;2023-05-07T11:45:48;27.80;40.60
33105;DHT22;19476;51.448;6.674;2023-05-07T11:48:15;27.80;39.90
33105;DHT22;19476;51.448;6.674;2023-05-07T11:50:59;27.80;40.10
33105;DHT22;19476;51.448;6.674;2023-05-07T11:53:27;27.80;39.90
33105;DHT22;19476;51.448;6.674;2023-05-07T11:55:54;27.80;40.30
33105;DHT22;19476;51.448;6.674;2023-05-07T11:58:22;27.70;40.40
33105;DHT22;19476;51.448;6.674;2023-05-07T12:00:51;27.70;40.40
33105;DHT22;19476;51.448;6.674;2023-05-07T12:03:17;27.70;40.00
33105;DHT22;19476;51.448;6.674;2023-05-07T12:05:44;27.60;40.20
33105;DHT22;19476;51.448;6.674;2023-05-07T12:08:20;27.60;40.30
33105;DHT22;19476;51.448;6.674;2023-05-07T12:10:48;27.50;39.90
33105;DHT22;19476;51.448;6.674;2023-05-07T12:13:17;27.50;40.30
33105;DHT22;19476;51.448;6.674;2023-05-07T12:15:43;27.50;40.10
33105;DHT22;19476;51.448;6.674;2023-05-07T12:18:11;27.50;40.20
33105;DHT22;19476;51.448;6.674;2023-05-07T12:20:37;27.50;40.20
33105;DHT22;19476;51.448;6.674;2023-05-07T12:23:04;27.40;40.40
33105;DHT22;19476;51.448;6.674;2023-05-07T12:25:31;27.40;40.40
33105;DHT22;19476;51.448;6.674;2023-05-07T12:27:57;27.30;40.40
33105;DHT22;19476;51.448;6.674;2023-05-07T12:30:24;27.30;40.40
33105;DHT22;19476;51.448;6.674;2023-05-07T12:32:54;27.30;40.30
33105;DHT22;19476;51.448;6.674;2023-05-07T12:35:27;27.30;40.10
33105;DHT22;19476;51.448;6.674;2023-05-07T12:37:57;27.30;40.70
33105;DHT22;19476;51.448;6.674;2023-05-07T12:40:38;27.30;40.30
33105;DHT22;19476;51.448;6.674;2023-05-07T12:43:04;27.20;40.40
33105;DHT22;19476;51.448;6.674;2023-05-07T12:45:30;27.20;40.20
33105;DHT22;19476;51.448;6.674;2023-05-07T12:48:01;27.40;40.10
33105;DHT22;19476;51.448;6.674;2023-05-07T12:50:31;27.20;39.80
33105;DHT22;19476;51.448;6.674;2023-05-07T12:52:57;27.20;39.80
33105;DHT22;19476;51.448;6.674;2023-05-07T12:55:24;27.10;40.00
33105;DHT22;19476;51.448;6.674;2023-05-07T12:57:50;27.10;39.90
33105;DHT22;19476;51.448;6.674;2023-05-07T13:00:35;27.20;40.10
33105;DHT22;19476;51.448;6.674;2023-05-07T13:03:01;27.10;39.70
33105;DHT22;19476;51.448;6.674;2023-05-07T13:05:27;27.10;39.90
33105;DHT22;19476;51.448;6.674;2023-05-07T13:07:54;27.10;39.90
33105;DHT22;19476;51.448;6.674;2023-05-07T13:10:20;27.10;39.90
33105;DHT22;19476;51.448;6.674;2023-05-07T13:12:45;27.00;39.80
33105;DHT22;19476;51.448;6.674;2023-05-07T13:15:11;27.10;40.00
33105;DHT22;19476;51.448;6.674;2023-05-07T13:17:37;27.10;40.20
33105;DHT22;19476;51.448;6.674;2023-05-07T13:20:03;27.00;40.20
33105;DHT22;19476;51.448;6.674;2023-05-07T13:22:29;27.00;40.30
33105;DHT22;19476;51.448;6.674;2023-05-07T13:24:55;26.90;40.30
33105;DHT22;19476;51.448;6.674;2023-05-07T13:27:22;27.00;40.50
33105;DHT22;19476;51.448;6.674;2023-05-07T13:29:47;26.90;40.30
33105;DHT22;19476;51.448;6.674;2023-05-07T13:32:13;26.90;40.30
33105;DHT22;19476;51.448;6.674;2023-05-07T13:34:39;26.90;40.40
33105;DHT22;19476;51.448;6.674;2023-05-07T13:37:04;26.80;40.30
33105;DHT22;19476;51.448;6.674;2023-05-07T13:39:30;26.80;40.60
33105;DHT22;19476;51.448;6.674;2023-05-07T13:41:57;26.80;40.80
33105;DHT22;19476;51.448;6.674;2023-05-07T13:44:23;26.70;40.90
33105;DHT22;19476;51.448;6.674;2023-05-07T13:46:48;26.70;41.10
33105;DHT22;19476;51.448;6.674;2023-05-07T13:49:14;26.70;41.30
33105;DHT22;19476;51.448;6.674;2023-05-07T13:51:40;26.60;41.40
33105;DHT22;19476;51.448;6.674;2023-05-07T13:54:06;26.60;41.50
33105;DHT22;19476;51.448;6.674;2023-05-07T13:56:31;26.50;41.50
33105;DHT22;19476;51.448;6.674;2023-05-07T13:58:58;26.50;41.70
33105;DHT22;19476;51.448;6.674;2023-05-07T14:01:24;26.50;41.90
33105;DHT22;19476;51.448;6.674;2023-05-07T14:03:50;26.40;42.00
33105;DHT22;19476;51.448;6.674;2023-05-07T14:06:15;26.40;42.20
33105;DHT22;19476;51.448;6.674;2023-05-07T14:08:41;26.30;42.30
33105;DHT22;19476;51.448;6.674;2023-05-07T14:11:07;26.30;42.50
33105;DHT22;19476;51.448;6.674;2023-05-07T14:13:33;26.20;42.50
33105;DHT22;19476;51.448;6.674;2023-05-07T14:15:59;26.20;42.60
33105;DHT22;19476;51.448;6.674;2023-05-07T14:18:26;26.10;42.60
33105;DHT22;19476;51.448;6.674;2023-05-07T14:20:54;25.80;42.70
33105;DHT22;19476;51.448;6.674;2023-05-07T14:23:20;26.00;42.90
33105;DHT22;19476;51.448;6.674;2023-05-07T14:25:50;25.90;43.00
33105;DHT22;19476;51.448;6.674;2023-05-07T14:28:16;25.80;43.10
33105;DHT22;19476;51.448;6.674;2023-05-07T14:30:42;25.70;43.30
33105;DHT22;19476;51.448;6.674;2023-05-07T14:33:08;25.60;43.40
33105;DHT22;19476;51.448;6.674;2023-05-07T14:35:34;25.60;43.80
33105;DHT22;19476;51.448;6.674;2023-05-07T14:37:59;25.50;44.40
33105;DHT22;19476;51.448;6.674;2023-05-07T14:40:25;25.40;45.40
33105;DHT22;19476;51.448;6.674;2023-05-07T14:42:51;25.30;46.20
33105;DHT22;19476;51.448;6.674;2023-05-07T14:45:17;25.30;47.00
33105;DHT22;19476;51.448;6.674;2023-05-07T14:47:42;25.10;47.60
33105;DHT22;19476;51.448;6.674;2023-05-07T14:50:08;25.00;48.10
33105;DHT22;19476;51.448;6.674;2023-05-07T14:52:34;24.90;48.50
33105;DHT22;19476;51.448;6.674;2023-05-07T14:55:00;24.80;48.90
33105;DHT22;19476;51.448;6.674;2023-05-07T14:57:26;24.70;49.30
33105;DHT22;19476;51.448;6.674;2023-05-07T14:59:51;24.70;49.60
33105;DHT22;19476;51.448;6.674;2023-05-07T15:02:17;24.60;49.80
33105;DHT22;19476;51.448;6.674;2023-05-07T15:04:44;24.50;49.80
33105;DHT22;19476;51.448;6.674;2023-05-07T15:07:14;24.40;50.10
33105;DHT22;19476;51.448;6.674;2023-05-07T15:09:44;24.40;50.20
33105;DHT22;19476;51.448;6.674;2023-05-07T15:12:10;24.30;50.30
33105;DHT22;19476;51.448;6.674;2023-05-07T15:14:38;24.30;50.50
33105;DHT22;19476;51.448;6.674;2023-05-07T15:17:04;24.20;50.90
33105;DHT22;19476;51.448;6.674;2023-05-07T15:19:29;24.20;50.90
33105;DHT22;19476;51.448;6.674;2023-05-07T15:21:57;24.20;51.10
33105;DHT22;19476;51.448;6.674;2023-05-07T15:24:25;24.10;51.40
33105;DHT22;19476;51.448;6.674;2023-05-07T15:26:54;24.10;51.20
33105;DHT22;19476;51.448;6.674;2023-05-07T15:29:19;24.00;51.60
33105;DHT22;19476;51.448;6.674;2023-05-07T15:31:46;24.00;51.50
33105;DHT22;19476;51.448;6.674;2023-05-07T15:34:12;24.00;51.70
33105;DHT22;19476;51.448;6.674;2023-05-07T15:36:38;23.90;51.70
33105;DHT22;19476;51.448;6.674;2023-05-07T15:39:03;23.90;51.60
33105;DHT22;19476;51.448;6.674;2023-05-07T15:41:30;24.00;51.60
33105;DHT22;19476;51.448;6.674;2023-05-07T15:43:55;23.90;51.60
33105;DHT22;19476;51.448;6.674;2023-05-07T15:46:22;24.00;51.60
33105;DHT22;19476;51.448;6.674;2023-05-07T15:48:50;24.00;51.50
33105;DHT22;19476;51.448;6.674;2023-05-07T15:51:16;24.10;51.40
33105;DHT22;19476;51.448;6.674;2023-05-07T16:00:26;24.10;51.50
33105;DHT22;19476;51.448;6.674;2023-05-07T16:02:55;24.20;51.20
33105;DHT22;19476;51.448;6.674;2023-05-07T16:05:21;24.30;51.10
33105;DHT22;19476;51.448;6.674;2023-05-07T16:07:47;24.40;50.90